Flight Number: EUR1532 Duration: 2:00
Departure: Gatwick Airport (EGKK) at 06:00 Distance: 443 Nm
Arrival: Barra Airport (EGPR) at 08:00 Equipment: B1900D

Weather Information
London / Gatwick Airport, United Kingdom (EGKK) 51-09N 000-11W 0M Jan 21, 2019 - 07:50 AM EST / 2019.01.21 1250 UTC
Wind: from the WSW (240 degrees) at 3 MPH (3 KT):0
Visibility: 3 mile(s):0 Temperature: 41 F (5 C) Dew Point: 35 F (2 C) Relative Humidity: 80% Pressure (altimeter): 30.18 in. Hg (1022 hPa)
ob: EGKK 211250Z 24003KT 6000 NSC 05/02 Q1022 cycle: 13
Sunrise: 07:56 Sunset: 16:27 (UTC)

404 Not Found

Not Found

The requested URL /data/observations/metar/decoded/EGPR.TXT was not found on this server.


Sunrise: 08:53 Sunset: 16:29 (UTC)

TAF: 404 Not Found

Not Found

The requested URL /data/forecasts/taf/stations/EGPR.TXT was not found on this server.



Previous Pireps for this route
Date Aircraft Flight time Fuel used Landing rate On time
2015-02-19DHC801.541760-625Charter
2015-05-27A32101.207824-215Charter
2016-10-11B1900D02.001718-205No
2018-04-04B1900D2.1619950Yes
(pireps marked green are flown by you)

Route map